Time;durP1;ratioP1;P1;durP2;ratioP2;P2;SDS_P1;SDS_P2;PMS_P1;PMS_P2;Temp;Humidity;BMP_temperature;BMP_pressure;BME280_temperature;BME280_humidity;BME280_pressure;Samples;Min_cycle;Max_cycle;Signal;HPM_P1;HPM_P2
2021/10/03 00:00:16;;;;;;;0.40;0.30;;;;;22.10;99262.00;;;;5029183;28;20215;-77
2021/10/03 00:02:47;;;;;;;3.78;0.50;;;;;22.10;99262.00;;;;5039338;28;20192;-78
2021/10/03 00:05:16;;;;;;;0.65;0.43;;;;;22.10;99260.00;;;;5030992;28;20199;-77
2021/10/03 00:07:50;;;;;;;3.70;0.60;;;;;22.10;99262.00;;;;5028047;28;20204;-78
2021/10/03 00:10:20;;;;;;;1.75;0.35;;;;;22.10;99257.00;;;;5028396;28;20192;-78
2021/10/03 00:12:48;;;;;;;0.47;0.40;;;;;22.10;99259.00;;;;5027913;28;20204;-78
2021/10/03 00:15:17;;;;;;;0.38;0.25;;;;;22.10;99255.00;;;;5028175;28;20192;-78
2021/10/03 00:17:44;;;;;;;0.30;0.22;;;;;22.10;99257.00;;;;5027864;28;20199;-78
2021/10/03 00:20:13;;;;;;;0.47;0.20;;;;;22.10;99247.00;;;;5038535;28;20215;-78
2021/10/03 00:22:43;;;;;;;0.40;0.30;;;;;22.10;99259.00;;;;5028262;28;20208;-78
2021/10/03 00:25:13;;;;;;;1.35;0.30;;;;;22.10;99267.00;;;;5031308;28;20741;-78
2021/10/03 00:27:41;;;;;;;0.40;0.30;;;;;22.10;99265.00;;;;5034499;28;20673;-78
2021/10/03 00:30:09;;;;;;;0.40;0.40;;;;;22.10;99259.00;;;;5031283;28;20204;-78
2021/10/03 00:32:36;;;;;;;1.23;0.43;;;;;22.20;99265.00;;;;5028169;28;20195;-78
2021/10/03 00:35:04;;;;;;;0.63;0.40;;;;;22.20;99268.00;;;;5035835;28;20211;-78
2021/10/03 00:37:32;;;;;;;0.98;0.30;;;;;22.20;99261.00;;;;5037656;28;20200;-77
2021/10/03 00:40:00;;;;;;;0.38;0.25;;;;;22.20;99262.00;;;;5027347;28;20224;-78
2021/10/03 00:42:28;;;;;;;0.65;0.40;;;;;22.20;99260.00;;;;5032772;28;20226;-78
2021/10/03 00:44:55;;;;;;;0.45;0.20;;;;;22.20;99251.00;;;;5030465;28;20221;-78
2021/10/03 00:47:23;;;;;;;0.75;0.47;;;;;22.20;99250.00;;;;5031944;28;20266;-78
2021/10/03 00:49:50;;;;;;;0.40;0.25;;;;;22.20;99250.00;;;;5027660;28;20197;-78
2021/10/03 00:52:18;;;;;;;0.73;0.30;;;;;22.20;99257.00;;;;5028060;28;20682;-78
2021/10/03 00:54:45;;;;;;;1.25;0.20;;;;;22.30;99257.00;;;;5027774;28;20200;-78
2021/10/03 00:57:13;;;;;;;0.50;0.40;;;;;22.20;99251.00;;;;5027626;28;20756;-78
2021/10/03 00:59:41;;;;;;;0.40;0.30;;;;;22.30;99239.00;;;;5035053;28;20192;-78
2021/10/03 01:02:09;;;;;;;0.52;0.38;;;;;22.30;99251.00;;;;5028199;28;20211;-78
2021/10/03 01:04:36;;;;;;;1.08;0.22;;;;;22.30;99244.00;;;;5036849;28;20203;-78
2021/10/03 01:07:04;;;;;;;1.17;0.47;;;;;22.30;99251.00;;;;5051136;28;20226;-79
2021/10/03 01:09:31;;;;;;;0.50;0.20;;;;;22.30;99256.00;;;;5046507;28;20207;-79
2021/10/03 01:11:58;;;;;;;0.73;0.20;;;;;22.30;99258.00;;;;5045955;28;20205;-77
2021/10/03 01:14:27;;;;;;;3.83;0.60;;;;;22.30;99255.00;;;;5042141;28;20564;-78
2021/10/03 01:16:54;;;;;;;0.30;0.30;;;;;22.40;99256.00;;;;5031563;28;20255;-78
2021/10/03 01:19:22;;;;;;;0.77;0.65;;;;;22.40;99252.00;;;;5039357;28;20277;-78
2021/10/03 01:21:50;;;;;;;0.40;0.30;;;;;22.40;99253.00;;;;5049098;28;20238;-78
2021/10/03 01:24:17;;;;;;;0.20;0.20;;;;;22.40;99257.00;;;;5044153;28;20203;-78
2021/10/03 01:26:45;;;;;;;0.32;0.30;;;;;22.40;99258.00;;;;5032101;28;20195;-78
2021/10/03 01:29:12;;;;;;;0.20;0.13;;;;;22.40;99258.00;;;;5045570;28;20207;-78
2021/10/03 01:31:40;;;;;;;0.38;0.30;;;;;22.40;99257.00;;;;5050650;28;20200;-78
2021/10/03 01:34:07;;;;;;;0.28;0.20;;;;;22.40;99250.00;;;;5041753;28;20616;-79
2021/10/03 01:36:35;;;;;;;1.20;0.30;;;;;22.40;99243.00;;;;5030988;28;20196;-78
2021/10/03 01:39:04;;;;;;;0.47;0.30;;;;;22.40;99243.00;;;;5034011;28;20212;-79
2021/10/03 01:41:31;;;;;;;0.40;0.30;;;;;22.40;99245.00;;;;5044034;28;20238;-79
2021/10/03 01:44:00;;;;;;;0.40;0.20;;;;;22.40;99249.00;;;;5035093;28;20196;-79
2021/10/03 01:46:27;;;;;;;0.30;0.20;;;;;22.40;99257.00;;;;5033736;28;20216;-78
2021/10/03 01:48:55;;;;;;;0.22;0.10;;;;;22.40;99265.00;;;;5035411;28;20565;-79
2021/10/03 01:51:22;;;;;;;0.10;0.10;;;;;22.40;99272.00;;;;5034608;28;20196;-79
2021/10/03 01:53:51;;;;;;;0.20;0.10;;;;;22.40;99268.00;;;;5040632;28;20199;-78
2021/10/03 01:56:22;;;;;;;0.40;0.30;;;;;22.30;99267.00;;;;5033352;28;20202;-78
2021/10/03 01:58:51;;;;;;;0.73;0.50;;;;;22.20;99256.00;;;;5030012;28;20290;-79
2021/10/03 02:01:20;;;;;;;0.13;0.10;;;;;22.20;99284.00;;;;5038209;28;20768;-79
2021/10/03 02:03:48;;;;;;;0.60;0.20;;;;;22.10;99259.00;;;;5032711;28;20207;-78
2021/10/03 02:06:16;;;;;;;0.40;0.10;;;;;22.00;99249.00;;;;5036662;28;20306;-79
2021/10/03 02:08:43;;;;;;;0.20;0.13;;;;;22.00;99275.00;;;;5029920;28;20582;-79
2021/10/03 02:11:10;;;;;;;0.52;0.10;;;;;21.90;99276.00;;;;5030551;28;20196;-78
2021/10/03 02:13:39;;;;;;;0.20;0.13;;;;;21.90;99260.00;;;;5031944;28;21019;-79
2021/10/03 02:16:06;;;;;;;1.00;0.20;;;;;21.80;99273.00;;;;5029577;28;20556;-79
2021/10/03 02:18:36;;;;;;;0.13;0.08;;;;;21.80;99263.00;;;;5040421;28;20204;-79
2021/10/03 02:21:05;;;;;;;0.70;0.30;;;;;21.80;99263.00;;;;5029450;28;20274;-78
2021/10/03 02:23:33;;;;;;;1.85;0.20;;;;;21.70;99270.00;;;;5032599;28;20218;-78
2021/10/03 02:26:01;;;;;;;0.75;0.28;;;;;21.70;99257.00;;;;5034512;28;20199;-78
2021/10/03 02:28:29;;;;;;;0.20;0.20;;;;;21.70;99263.00;;;;5049655;28;20195;-78
2021/10/03 02:31:01;;;;;;;0.30;0.30;;;;;21.60;99256.00;;;;5049567;28;20210;-78
2021/10/03 02:33:29;;;;;;;2.40;0.43;;;;;21.70;99262.00;;;;5035189;28;20196;-78
2021/10/03 02:35:57;;;;;;;0.65;0.28;;;;;21.70;99262.00;;;;5049365;28;20207;-78
2021/10/03 02:38:26;;;;;;;0.30;0.17;;;;;21.60;99257.00;;;;5038031;28;20202;-79
2021/10/03 02:40:55;;;;;;;1.85;0.45;;;;;21.60;99253.00;;;;5033511;28;20218;-79
2021/10/03 02:43:24;;;;;;;1.13;0.30;;;;;21.60;99254.00;;;;5041685;28;20223;-78
2021/10/03 02:45:54;;;;;;;0.43;0.30;;;;;21.60;99259.00;;;;5036542;28;20219;-77
2021/10/03 02:48:24;;;;;;;0.20;0.15;;;;;21.60;99269.00;;;;5031592;28;20713;-77
2021/10/03 02:50:53;;;;;;;0.25;0.17;;;;;21.60;99261.00;;;;5042844;28;20204;-79
2021/10/03 02:53:22;;;;;;;1.02;0.30;;;;;21.60;99265.00;;;;5037267;28;20212;-78
2021/10/03 02:55:52;;;;;;;0.60;0.40;;;;;21.60;99260.00;;;;5032795;28;20200;-79
2021/10/03 02:58:20;;;;;;;0.80;0.20;;;;;21.60;99265.00;;;;5032973;28;20192;-78
2021/10/03 03:00:49;;;;;;;0.55;0.15;;;;;21.60;99274.00;;;;5031111;28;20232;-79
2021/10/03 03:03:17;;;;;;;0.40;0.22;;;;;21.60;99297.00;;;;5035054;28;20196;-78
2021/10/03 03:05:45;;;;;;;1.58;0.45;;;;;21.50;99310.00;;;;5033063;28;20192;-77
2021/10/03 03:08:13;;;;;;;1.38;0.30;;;;;21.50;99308.00;;;;5039584;28;20207;-77
2021/10/03 03:10:40;;;;;;;1.40;0.25;;;;;21.40;99324.00;;;;5048221;28;20195;-78
2021/10/03 03:13:07;;;;;;;1.38;0.32;;;;;21.40;99321.00;;;;5043462;28;20200;-78
2021/10/03 03:15:35;;;;;;;0.00;0.00;;;;;21.30;99317.00;;;;5029615;28;20188;-78
2021/10/03 03:18:02;;;;;;;0.73;0.20;;;;;21.20;99326.00;;;;5028422;28;20196;-78
2021/10/03 03:20:29;;;;;;;1.20;0.08;;;;;21.20;99328.00;;;;5032435;28;20196;-78
2021/10/03 03:22:58;;;;;;;0.50;0.20;;;;;21.10;99314.00;;;;5028391;28;20188;-78
2021/10/03 03:25:25;;;;;;;1.65;0.13;;;;;21.10;99315.00;;;;5038367;28;20814;-77
2021/10/03 03:27:52;;;;;;;0.30;0.10;;;;;21.00;99319.00;;;;5029493;28;20200;-78
2021/10/03 03:30:20;;;;;;;0.28;0.13;;;;;21.00;99316.00;;;;5039421;28;20200;-78
2021/10/03 03:32:47;;;;;;;1.20;0.10;;;;;21.00;99310.00;;;;5031205;28;20192;-78
2021/10/03 03:35:14;;;;;;;0.28;0.10;;;;;20.90;99315.00;;;;5029285;28;20201;-78
2021/10/03 03:37:42;;;;;;;0.30;0.20;;;;;20.90;99306.00;;;;5029357;28;20192;-78
2021/10/03 03:40:14;;;;;;;1.17;0.32;;;;;20.80;99317.00;;;;5028949;28;20248;-78
2021/10/03 03:42:42;;;;;;;1.15;0.35;;;;;20.80;99315.00;;;;5036149;28;20271;-78
2021/10/03 03:45:10;;;;;;;0.45;0.05;;;;;20.80;99305.00;;;;5031823;28;20231;-77
2021/10/03 03:47:38;;;;;;;1.17;0.10;;;;;20.80;99317.00;;;;5036257;28;20203;-78
2021/10/03 03:50:07;;;;;;;0.90;0.10;;;;;20.70;99310.00;;;;5039468;28;20211;-78
2021/10/03 03:52:34;;;;;;;0.20;0.10;;;;;20.70;99300.00;;;;5032530;28;20208;-78
2021/10/03 03:55:01;;;;;;;0.32;0.15;;;;;20.70;99309.00;;;;5031431;28;20195;-78
2021/10/03 03:57:30;;;;;;;0.30;0.10;;;;;20.70;99315.00;;;;5031010;28;20188;-78
2021/10/03 03:59:57;;;;;;;0.30;0.20;;;;;20.60;99309.00;;;;5029155;28;20208;-78
2021/10/03 04:02:24;;;;;;;0.65;0.28;;;;;20.60;99310.00;;;;5030738;28;20199;-78
2021/10/03 04:04:52;;;;;;;1.38;0.22;;;;;20.60;99315.00;;;;5031683;28;20203;-78
2021/10/03 04:07:20;;;;;;;1.83;0.38;;;;;20.60;99314.00;;;;5035725;28;20204;-78
2021/10/03 04:09:47;;;;;;;0.90;0.10;;;;;20.60;99314.00;;;;5028099;28;20243;-77
2021/10/03 04:12:15;;;;;;;0.20;0.10;;;;;20.60;99312.00;;;;5033587;28;20211;-77
2021/10/03 04:14:43;;;;;;;0.75;0.20;;;;;20.60;99309.00;;;;5040895;28;20258;-78
2021/10/03 04:17:11;;;;;;;0.17;0.10;;;;;20.60;99306.00;;;;5031783;28;20215;-78
2021/10/03 04:19:38;;;;;;;0.30;0.10;;;;;20.60;99313.00;;;;5033643;28;20184;-77
2021/10/03 04:22:05;;;;;;;0.20;0.10;;;;;20.60;99322.00;;;;5027717;28;20231;-78
2021/10/03 04:24:33;;;;;;;0.30;0.10;;;;;20.60;99321.00;;;;5027884;28;20204;-78
2021/10/03 04:27:00;;;;;;;0.08;0.00;;;;;20.60;99321.00;;;;5033505;28;20196;-78
2021/10/03 04:29:27;;;;;;;0.55;0.10;;;;;20.60;99326.00;;;;5028055;28;20188;-78
2021/10/03 04:31:56;;;;;;;0.63;0.17;;;;;20.60;99322.00;;;;5027773;28;20204;-78
2021/10/03 04:34:23;;;;;;;0.40;0.13;;;;;20.60;99326.00;;;;5028914;28;20207;-77
2021/10/03 04:36:51;;;;;;;0.85;0.17;;;;;20.60;99335.00;;;;5035132;28;20291;-78
2021/10/03 04:39:18;;;;;;;0.40;0.08;;;;;20.50;99337.00;;;;5031363;28;20192;-78
2021/10/03 04:41:45;;;;;;;0.45;0.10;;;;;20.50;99334.00;;;;5031456;28;20713;-77
2021/10/03 04:44:13;;;;;;;0.73;0.20;;;;;20.50;99326.00;;;;5032420;28;20205;-78
2021/10/03 04:46:40;;;;;;;0.10;0.00;;;;;20.50;99332.00;;;;5031808;28;20208;-78
2021/10/03 04:49:08;;;;;;;0.38;0.20;;;;;20.50;99335.00;;;;5041941;28;20199;-77
2021/10/03 04:51:36;;;;;;;0.98;0.30;;;;;20.50;99335.00;;;;5040374;28;20204;-78
2021/10/03 04:54:03;;;;;;;1.88;0.25;;;;;20.50;99336.00;;;;5044932;28;20195;-78
2021/10/03 04:56:30;;;;;;;0.32;0.10;;;;;20.50;99328.00;;;;5050530;28;20203;-78
2021/10/03 04:58:58;;;;;;;0.75;0.10;;;;;20.40;99332.00;;;;5034257;28;20200;-78
2021/10/03 05:01:25;;;;;;;0.52;0.20;;;;;20.40;99322.00;;;;5031417;28;20228;-77
2021/10/03 05:03:52;;;;;;;0.63;0.20;;;;;20.40;99339.00;;;;5034149;28;20195;-77
2021/10/03 05:06:21;;;;;;;0.63;0.32;;;;;20.40;99330.00;;;;5035549;28;20199;-77
2021/10/03 05:08:48;;;;;;;0.43;0.10;;;;;20.50;99326.00;;;;5033763;28;20204;-77
2021/10/03 05:11:15;;;;;;;0.30;0.25;;;;;20.50;99326.00;;;;5036509;28;20208;-77
2021/10/03 05:13:43;;;;;;;0.40;0.15;;;;;20.50;99327.00;;;;5033858;28;20705;-77
2021/10/03 05:16:10;;;;;;;1.10;0.20;;;;;20.50;99328.00;;;;5038417;28;20207;-77
2021/10/03 05:18:37;;;;;;;0.65;0.20;;;;;20.50;99326.00;;;;5033298;28;20196;-77
2021/10/03 05:21:05;;;;;;;0.10;0.10;;;;;20.50;99329.00;;;;5034266;28;20191;-77
2021/10/03 05:23:35;;;;;;;0.50;0.20;;;;;20.50;99322.00;;;;5042041;28;20211;-77
2021/10/03 05:26:02;;;;;;;0.75;0.30;;;;;20.50;99324.00;;;;5040883;28;20955;-77
2021/10/03 05:28:29;;;;;;;0.20;0.10;;;;;20.50;99330.00;;;;5037564;28;20595;-77
2021/10/03 05:30:56;;;;;;;0.30;0.17;;;;;20.50;99327.00;;;;5043678;28;20314;-77
2021/10/03 05:33:24;;;;;;;0.85;0.22;;;;;20.50;99322.00;;;;5034943;28;20208;-77
2021/10/03 05:35:51;;;;;;;0.25;0.10;;;;;20.50;99324.00;;;;5031017;28;20196;-78
2021/10/03 05:38:19;;;;;;;0.20;0.10;;;;;20.50;99324.00;;;;5035606;28;20751;-77
2021/10/03 05:40:47;;;;;;;0.20;0.10;;;;;20.50;99325.00;;;;5034714;28;20204;-77
2021/10/03 05:43:14;;;;;;;0.40;0.30;;;;;20.50;99319.00;;;;5036154;28;20232;-77
2021/10/03 05:45:42;;;;;;;0.32;0.10;;;;;20.40;99331.00;;;;5034647;28;20219;-77
2021/10/03 05:48:09;;;;;;;0.15;0.10;;;;;20.40;99329.00;;;;5035271;28;20200;-77
2021/10/03 05:50:36;;;;;;;0.10;0.10;;;;;20.40;99334.00;;;;5036676;28;20204;-77
2021/10/03 05:53:04;;;;;;;0.60;0.15;;;;;20.40;99338.00;;;;5043035;28;20199;-77
2021/10/03 05:55:31;;;;;;;0.77;0.32;;;;;20.40;99340.00;;;;5034705;28;20196;-77
2021/10/03 05:58:00;;;;;;;2.65;0.17;;;;;20.40;99330.00;;;;5041131;28;20204;-77
2021/10/03 06:00:27;;;;;;;1.45;0.32;;;;;20.40;99337.00;;;;5032354;28;20196;-77
2021/10/03 06:02:55;;;;;;;0.50;0.30;;;;;20.40;99343.00;;;;5034553;28;20228;-77
2021/10/03 06:05:22;;;;;;;0.30;0.10;;;;;20.40;99327.00;;;;5032998;28;20207;-77
2021/10/03 06:07:49;;;;;;;0.95;0.10;;;;;20.40;99332.00;;;;5032398;28;21554;-77
2021/10/03 06:10:17;;;;;;;0.60;0.30;;;;;20.40;99335.00;;;;5034290;28;20204;-77
2021/10/03 06:12:44;;;;;;;0.40;0.20;;;;;20.40;99336.00;;;;5035411;28;20231;-77
2021/10/03 06:15:13;;;;;;;0.15;0.08;;;;;20.40;99339.00;;;;5034389;28;20204;-77
2021/10/03 06:17:40;;;;;;;0.65;0.17;;;;;20.40;99358.00;;;;5034006;28;20196;-77
2021/10/03 06:20:08;;;;;;;0.60;0.10;;;;;20.40;99351.00;;;;5040235;28;20572;-77
2021/10/03 06:22:36;;;;;;;0.10;0.05;;;;;20.40;99365.00;;;;5036027;28;20230;-77
2021/10/03 06:25:03;;;;;;;0.68;0.10;;;;;20.40;99361.00;;;;5040179;28;20192;-77
2021/10/03 06:27:31;;;;;;;0.40;0.17;;;;;20.40;99379.00;;;;5038401;28;20200;-77
2021/10/03 06:29:59;;;;;;;0.43;0.10;;;;;20.40;99379.00;;;;5038107;28;20204;-77
2021/10/03 06:32:27;;;;;;;0.68;0.17;;;;;20.30;99385.00;;;;5035307;28;20204;-77
2021/10/03 06:34:55;;;;;;;2.35;0.15;;;;;20.20;99388.00;;;;5033677;28;20200;-76
2021/10/03 06:37:22;;;;;;;0.60;0.30;;;;;20.20;99398.00;;;;5036860;28;20208;-77
2021/10/03 06:39:49;;;;;;;0.28;0.10;;;;;20.20;99401.00;;;;5035133;28;20212;-77
2021/10/03 06:42:17;;;;;;;0.63;0.20;;;;;20.10;99402.00;;;;5038447;28;20236;-77
2021/10/03 06:44:44;;;;;;;0.38;0.20;;;;;20.10;99400.00;;;;5036896;28;20200;-77
2021/10/03 06:47:12;;;;;;;0.30;0.10;;;;;20.00;99403.00;;;;5038532;28;20196;-77
2021/10/03 06:49:42;;;;;;;1.23;0.10;;;;;20.00;99409.00;;;;5035293;28;20291;-76
2021/10/03 06:52:10;;;;;;;1.25;0.30;;;;;19.90;99413.00;;;;5037895;28;20612;-77
2021/10/03 06:54:38;;;;;;;0.60;0.13;;;;;19.90;99411.00;;;;5043639;28;20234;-77
2021/10/03 06:57:05;;;;;;;1.02;0.22;;;;;19.90;99411.00;;;;5036071;28;20200;-77
2021/10/03 06:59:33;;;;;;;0.32;0.13;;;;;19.80;99407.00;;;;5031742;28;20205;-77
2021/10/03 07:02:01;;;;;;;1.20;0.30;;;;;19.80;99401.00;;;;5036333;28;20227;-77
2021/10/03 07:04:30;;;;;;;0.17;0.10;;;;;19.80;99409.00;;;;5029719;28;20192;-77
2021/10/03 07:06:59;;;;;;;2.17;0.73;;;;;19.70;99416.00;;;;5036400;28;20199;-77
2021/10/03 07:09:26;;;;;;;0.90;0.20;;;;;19.70;99425.00;;;;5031691;28;20211;-77
2021/10/03 07:11:54;;;;;;;0.20;0.10;;;;;19.70;99422.00;;;;5041006;28;20211;-76
2021/10/03 07:14:22;;;;;;;1.13;0.30;;;;;19.70;99426.00;;;;5040231;28;20680;-77
2021/10/03 07:16:49;;;;;;;1.15;0.20;;;;;19.70;99426.00;;;;5031732;28;20686;-77
2021/10/03 07:19:16;;;;;;;0.93;0.40;;;;;19.70;99419.00;;;;5036099;28;20203;-77
2021/10/03 07:21:44;;;;;;;1.08;0.20;;;;;19.70;99417.00;;;;5034160;28;20200;-77
2021/10/03 07:24:12;;;;;;;0.32;0.10;;;;;19.60;99416.00;;;;5029165;28;20196;-78
2021/10/03 07:26:39;;;;;;;0.95;0.30;;;;;19.70;99411.00;;;;5036220;28;20207;-76
2021/10/03 07:29:07;;;;;;;1.50;0.22;;;;;19.70;99416.00;;;;5029597;28;20201;-77
2021/10/03 07:31:35;;;;;;;1.50;0.30;;;;;19.70;99423.00;;;;5034510;28;20209;-78
2021/10/03 07:34:02;;;;;;;1.45;0.60;;;;;19.70;99434.00;;;;5033022;28;20203;-78
2021/10/03 07:36:30;;;;;;;1.17;0.10;;;;;19.70;99429.00;;;;5035432;28;20597;-78
2021/10/03 07:38:57;;;;;;;0.50;0.10;;;;;19.70;99437.00;;;;5033742;28;20212;-78
2021/10/03 07:41:25;;;;;;;0.90;0.40;;;;;19.70;99438.00;;;;5034341;28;20234;-78
2021/10/03 07:43:54;;;;;;;0.60;0.10;;;;;19.70;99444.00;;;;5037122;28;20228;-78
2021/10/03 07:46:22;;;;;;;1.20;0.30;;;;;19.70;99452.00;;;;5037324;28;20614;-77
2021/10/03 07:48:49;;;;;;;0.93;0.20;;;;;19.70;99459.00;;;;5043502;28;20207;-78
2021/10/03 07:51:17;;;;;;;0.90;0.20;;;;;19.70;99450.00;;;;5046465;28;20200;-77
2021/10/03 07:53:44;;;;;;;0.35;0.17;;;;;19.70;99453.00;;;;5036834;28;20204;-77
2021/10/03 07:56:11;;;;;;;0.32;0.10;;;;;19.70;99456.00;;;;5027595;28;20207;-77
2021/10/03 07:58:40;;;;;;;0.73;0.15;;;;;19.70;99456.00;;;;5028573;28;20605;-78
2021/10/03 08:01:07;;;;;;;0.55;0.10;;;;;19.70;99451.00;;;;5046172;28;20214;-77
2021/10/03 08:03:37;;;;;;;0.95;0.20;;;;;19.70;99453.00;;;;5039932;28;20277;-77
2021/10/03 08:06:04;;;;;;;0.50;0.10;;;;;19.70;99451.00;;;;5028737;28;21060;-77
2021/10/03 08:08:31;;;;;;;0.77;0.30;;;;;19.70;99450.00;;;;5032128;28;20200;-77
2021/10/03 08:10:59;;;;;;;0.32;0.15;;;;;19.70;99456.00;;;;5032269;28;20195;-77
2021/10/03 08:13:26;;;;;;;0.47;0.10;;;;;19.70;99457.00;;;;5036558;28;20208;-78
2021/10/03 08:15:55;;;;;;;0.82;0.30;;;;;19.70;99454.00;;;;5036663;28;20198;-77
2021/10/03 08:18:22;;;;;;;0.38;0.10;;;;;19.80;99463.00;;;;5033442;28;20203;-77
2021/10/03 08:20:51;;;;;;;0.28;0.20;;;;;19.70;99461.00;;;;5031361;28;20207;-77
2021/10/03 08:23:18;;;;;;;0.73;0.43;;;;;19.80;99459.00;;;;5036752;28;20223;-78
2021/10/03 08:25:46;;;;;;;1.02;0.25;;;;;19.80;99460.00;;;;5035359;28;20203;-78
2021/10/03 08:28:13;;;;;;;0.20;0.15;;;;;19.80;99464.00;;;;5033581;28;20203;-77
2021/10/03 08:30:41;;;;;;;0.55;0.20;;;;;19.80;99465.00;;;;5038641;28;20192;-77
2021/10/03 08:33:09;;;;;;;0.40;0.20;;;;;19.80;99468.00;;;;5042125;28;21318;-77
2021/10/03 08:35:37;;;;;;;0.80;0.20;;;;;19.80;99459.00;;;;5030883;28;20211;-78
2021/10/03 08:38:13;;;;;;;0.60;0.30;;;;;19.90;99460.00;;;;5033756;28;20436;-78
2021/10/03 08:40:40;;;;;;;0.50;0.22;;;;;19.90;99462.00;;;;5036327;28;20211;-78
2021/10/03 08:43:08;;;;;;;0.20;0.10;;;;;19.90;99467.00;;;;5030038;28;20227;-77
2021/10/03 08:45:39;;;;;;;1.30;0.32;;;;;19.90;99463.00;;;;5034724;28;20244;-77
2021/10/03 08:48:10;;;;;;;1.25;0.52;;;;;19.90;99465.00;;;;5034408;28;20208;-77
2021/10/03 08:50:37;;;;;;;0.52;0.38;;;;;19.90;99462.00;;;;5034353;28;20196;-78
2021/10/03 08:53:05;;;;;;;0.65;0.25;;;;;19.90;99464.00;;;;5033368;28;20550;-79
2021/10/03 08:55:32;;;;;;;1.10;0.47;;;;;19.90;99467.00;;;;5035597;28;20216;-78
2021/10/03 08:57:59;;;;;;;3.50;0.45;;;;;19.90;99465.00;;;;5036476;28;20207;-77
2021/10/03 09:00:27;;;;;;;0.43;0.20;;;;;19.90;99469.00;;;;5030364;28;20207;-78
2021/10/03 09:03:01;;;;;;;0.70;0.40;;;;;19.90;99471.00;;;;5029644;28;20311;-78
2021/10/03 09:05:32;;;;;;;0.60;0.20;;;;;19.90;99473.00;;;;5034856;28;20218;-77
2021/10/03 09:08:01;;;;;;;1.08;0.22;;;;;20.00;99473.00;;;;5031898;28;20200;-77
2021/10/03 09:10:28;;;;;;;0.28;0.15;;;;;20.00;99474.00;;;;5043906;28;20180;-77
2021/10/03 09:12:58;;;;;;;0.40;0.28;;;;;20.00;99471.00;;;;5036769;28;20543;-77
2021/10/03 09:15:26;;;;;;;1.35;0.32;;;;;20.00;99465.00;;;;5038011;28;20294;-77
2021/10/03 09:17:55;;;;;;;0.73;0.22;;;;;20.00;99465.00;;;;5032812;28;20203;-78
2021/10/03 09:20:23;;;;;;;0.30;0.10;;;;;20.00;99459.00;;;;5034122;28;20207;-79
2021/10/03 09:23:05;;;;;;;0.30;0.20;;;;;20.00;99462.00;;;;5041831;28;20274;-79
2021/10/03 09:25:41;;;;;;;1.38;0.20;;;;;20.00;99464.00;;;;5036054;28;20646;-79
2021/10/03 09:28:10;;;;;;;1.95;0.25;;;;;20.00;99475.00;;;;5047552;28;20214;-78
2021/10/03 09:30:52;;;;;;;0.30;0.20;;;;;20.10;99475.00;;;;5048577;28;20199;-79
2021/10/03 09:33:19;;;;;;;0.20;0.15;;;;;20.10;99481.00;;;;5031186;28;20212;-77
2021/10/03 09:35:57;;;;;;;0.63;0.22;;;;;20.00;99485.00;;;;5030003;28;20192;-77
2021/10/03 09:38:27;;;;;;;0.28;0.20;;;;;20.10;99486.00;;;;5031738;28;20203;-78
2021/10/03 09:41:02;;;;;;;0.25;0.10;;;;;20.10;99488.00;;;;5036730;28;20197;-76
2021/10/03 09:43:39;;;;;;;0.10;0.10;;;;;20.10;99480.00;;;;5030386;28;20230;-76
2021/10/03 09:46:07;;;;;;;0.63;0.20;;;;;20.20;99484.00;;;;5034272;28;20220;-76
2021/10/03 09:48:47;;;;;;;0.40;0.20;;;;;20.10;99491.00;;;;5030892;28;20208;-76
2021/10/03 09:51:16;;;;;;;0.20;0.20;;;;;20.20;99500.00;;;;5033241;28;20224;-76
2021/10/03 09:53:49;;;;;;;0.28;0.10;;;;;20.20;99539.00;;;;5029386;28;20196;-76
2021/10/03 09:56:16;;;;;;;0.25;0.20;;;;;20.30;99527.00;;;;5031344;28;20192;-76
2021/10/03 09:58:44;;;;;;;0.73;0.20;;;;;20.30;99499.00;;;;5028732;28;20282;-77
2021/10/03 10:01:12;;;;;;;0.90;0.25;;;;;20.30;99496.00;;;;5034890;28;20684;-77
2021/10/03 10:03:41;;;;;;;0.30;0.20;;;;;20.30;99493.00;;;;5037422;28;20715;-78
2021/10/03 10:06:08;;;;;;;0.32;0.20;;;;;20.30;99508.00;;;;5040354;28;20203;-76
2021/10/03 10:08:37;;;;;;;1.10;0.30;;;;;20.40;99511.00;;;;5036662;28;20211;-76
2021/10/03 10:11:10;;;;;;;0.25;0.25;;;;;20.30;99516.00;;;;5032480;28;20192;-75
2021/10/03 10:13:39;;;;;;;0.65;0.15;;;;;20.40;99526.00;;;;5036831;28;20207;-76
2021/10/03 10:16:32;;;;;;;0.20;0.20;;;;;20.30;99531.00;;;;5028706;28;20203;-75
2021/10/03 10:19:33;;;;;;;2.22;0.30;;;;;20.30;99536.00;;;;5028025;28;20197;-75
2021/10/03 10:22:29;;;;;;;0.32;0.13;;;;;20.30;99524.00;;;;5042688;28;20204;-77
2021/10/03 10:24:58;;;;;;;0.55;0.25;;;;;20.40;99519.00;;;;5032632;28;20701;-75
2021/10/03 10:28:06;;;;;;;0.45;0.20;;;;;20.30;99518.00;;;;5039166;28;20196;-77
2021/10/03 10:30:38;;;;;;;0.47;0.20;;;;;20.50;99505.00;;;;5033684;28;20208;-78
2021/10/03 10:33:19;;;;;;;0.55;0.38;;;;;20.50;99508.00;;;;5030200;28;20188;-78
2021/10/03 10:35:46;;;;;;;1.23;0.25;;;;;20.50;99509.00;;;;5036975;28;20199;-78
2021/10/03 10:38:20;;;;;;;1.38;0.50;;;;;20.40;99511.00;;;;5036173;28;20203;-78
2021/10/03 10:40:49;;;;;;;0.85;0.52;;;;;20.50;99502.00;;;;5032265;28;20208;-78
2021/10/03 10:43:46;;;;;;;0.88;0.60;;;;;20.40;99510.00;;;;5049694;28;20233;-78
2021/10/03 10:46:48;;;;;;;0.93;0.60;;;;;20.40;99537.00;;;;5049544;28;20705;-78
2021/10/03 10:49:33;;;;;;;0.52;0.20;;;;;20.40;99529.00;;;;5026037;28;20215;-78
2021/10/03 10:52:35;;;;;;;0.93;0.25;;;;;20.40;99535.00;;;;5030199;28;20215;-78
2021/10/03 10:55:27;;;;;;;1.02;0.40;;;;;20.40;99545.00;;;;5028935;28;20211;-78
2021/10/03 10:58:15;;;;;;;0.30;0.13;;;;;20.40;99552.00;;;;5027788;28;20203;-77
2021/10/03 11:01:14;;;;;;;0.20;0.15;;;;;20.40;99563.00;;;;5027291;28;20291;-78
2021/10/03 11:03:55;;;;;;;0.40;0.20;;;;;20.40;99547.00;;;;5028782;28;20232;-78
2021/10/03 11:06:57;;;;;;;0.40;0.20;;;;;20.40;99560.00;;;;5028357;28;21049;-78
2021/10/03 11:09:25;;;;;;;0.85;0.30;;;;;20.50;99565.00;;;;4970044;28;20237;-78
2021/10/03 11:12:01;;;;;;;0.57;0.17;;;;;20.50;99557.00;;;;4967106;28;20209;-78
2021/10/03 11:14:29;;;;;;;0.80;0.60;;;;;20.50;99563.00;;;;5007083;28;20196;-78
2021/10/03 11:17:03;;;;;;;0.30;0.20;;;;;20.50;99546.00;;;;5036676;28;20211;-78
2021/10/03 11:19:39;;;;;;;0.28;0.15;;;;;20.50;99563.00;;;;5040715;28;20278;-78
2021/10/03 11:22:12;;;;;;;1.67;0.40;;;;;20.60;99573.00;;;;5041274;28;20200;-78
2021/10/03 11:24:41;;;;;;;0.68;0.40;;;;;20.60;99577.00;;;;5036034;28;20219;-78
2021/10/03 11:27:10;;;;;;;0.55;0.28;;;;;20.60;99587.00;;;;5033181;28;20204;-78
2021/10/03 11:29:39;;;;;;;0.30;0.30;;;;;20.60;99589.00;;;;5028269;28;20204;-78
2021/10/03 11:32:10;;;;;;;0.35;0.20;;;;;20.60;99583.00;;;;5036392;28;20192;-78
2021/10/03 11:34:39;;;;;;;1.17;0.50;;;;;20.60;99571.00;;;;5039698;28;20195;-78
2021/10/03 11:37:09;;;;;;;1.13;0.55;;;;;20.70;99561.00;;;;5028351;28;20681;-78
2021/10/03 11:39:39;;;;;;;0.50;0.38;;;;;20.70;99562.00;;;;5029239;28;20574;-78
2021/10/03 11:42:08;;;;;;;2.28;0.50;;;;;20.70;99555.00;;;;5028511;28;20224;-78
2021/10/03 11:44:37;;;;;;;1.35;0.73;;;;;20.70;99553.00;;;;5029036;28;20231;-78
2021/10/03 11:47:06;;;;;;;0.93;0.50;;;;;20.70;99562.00;;;;5028372;28;20216;-78
2021/10/03 11:49:38;;;;;;;0.63;0.30;;;;;20.70;99571.00;;;;5028709;28;20204;-78
2021/10/03 11:52:08;;;;;;;0.60;0.60;;;;;20.70;99575.00;;;;5028536;28;20999;-78
2021/10/03 11:54:38;;;;;;;1.50;0.55;;;;;20.70;99577.00;;;;5031174;28;20208;-78
2021/10/03 11:57:19;;;;;;;0.20;0.20;;;;;20.60;99586.00;;;;5048290;28;20926;-78
2021/10/03 11:59:48;;;;;;;1.75;0.70;;;;;20.70;99603.00;;;;5042062;28;20204;-78
2021/10/03 12:02:17;;;;;;;0.65;0.38;;;;;20.70;99636.00;;;;5028584;28;20200;-78
2021/10/03 12:04:57;;;;;;;0.60;0.30;;;;;20.60;99655.00;;;;5032824;28;20224;-78
2021/10/03 12:07:25;;;;;;;1.65;0.60;;;;;20.70;99649.00;;;;5027841;28;20200;-77
2021/10/03 12:09:57;;;;;;;0.80;0.47;;;;;20.60;99647.00;;;;5028218;28;20831;-78
2021/10/03 12:12:47;;;;;;;2.53;0.60;;;;;20.50;99650.00;;;;5029411;28;20208;-78
2021/10/03 12:15:34;;;;;;;0.82;0.65;;;;;20.50;99674.00;;;;5028909;28;20204;-78
2021/10/03 12:18:01;;;;;;;0.85;0.50;;;;;20.60;99663.00;;;;5027872;28;20203;-78
2021/10/03 12:20:52;;;;;;;1.30;0.60;;;;;20.50;99671.00;;;;5029420;28;20196;-78
2021/10/03 12:23:20;;;;;;;0.65;0.57;;;;;20.60;99680.00;;;;5037428;28;20204;-78
2021/10/03 12:25:50;;;;;;;1.75;0.57;;;;;20.50;99700.00;;;;5048183;28;20290;-78
2021/10/03 12:28:19;;;;;;;1.15;0.60;;;;;20.50;99701.00;;;;5033501;28;20200;-78
2021/10/03 12:30:48;;;;;;;0.75;0.50;;;;;20.50;99702.00;;;;5033466;28;20192;-78